Time;durP1;ratioP1;P1;durP2;ratioP2;P2;SDS_P1;SDS_P2;PMS_P1;PMS_P2;Temp;Humidity;BMP_temperature;BMP_pressure;BME280_temperature;BME280_humidity;BME280_pressure;Samples;Min_cycle;Max_cycle;Signal;HPM_P1;HPM_P2
2022/06/26 00:01:20;;;;;;;38.65;22.00;;;18.10;99.90;;;;;;5088572;28;20043;-67
2022/06/26 00:03:46;;;;;;;31.67;25.45;;;18.10;99.90;;;;;;5088137;28;20362;-67
2022/06/26 00:06:11;;;;;;;25.00;18.83;;;18.00;99.90;;;;;;5083733;28;20551;-67
2022/06/26 00:08:37;;;;;;;22.38;19.92;;;18.00;99.90;;;;;;5087948;28;20044;-67
2022/06/26 00:11:03;;;;;;;25.27;21.15;;;18.10;99.90;;;;;;5088260;28;20043;-67
2022/06/26 00:13:29;;;;;;;24.45;20.95;;;18.10;99.90;;;;;;5068609;28;20048;-67
2022/06/26 00:15:55;;;;;;;26.67;22.63;;;18.10;99.90;;;;;;5087478;28;20044;-67
2022/06/26 00:18:20;;;;;;;25.00;21.67;;;18.10;99.90;;;;;;5087632;28;20036;-67
2022/06/26 00:20:46;;;;;;;25.25;22.15;;;18.10;99.90;;;;;;5066223;28;20048;-67
2022/06/26 00:23:13;;;;;;;25.23;22.58;;;18.10;99.90;;;;;;5087803;28;20043;-67
2022/06/26 00:25:39;;;;;;;28.75;22.42;;;18.10;99.90;;;;;;5088043;28;20034;-68
2022/06/26 00:28:05;;;;;;;32.33;24.10;;;18.10;99.90;;;;;;5087011;28;20040;-67
2022/06/26 00:30:31;;;;;;;30.98;25.58;;;18.10;99.90;;;;;;5087422;28;20146;-67
2022/06/26 00:32:57;;;;;;;28.27;25.02;;;18.10;99.90;;;;;;5086700;28;20449;-67
2022/06/26 00:35:23;;;;;;;34.45;26.85;;;18.10;99.90;;;;;;5088602;28;20406;-68
2022/06/26 00:37:49;;;;;;;33.03;27.70;;;18.10;99.90;;;;;;5086622;28;20047;-68
2022/06/26 00:40:15;;;;;;;37.17;29.92;;;18.10;99.90;;;;;;5086484;28;20629;-68
2022/06/26 00:42:40;;;;;;;36.05;30.42;;;18.10;99.90;;;;;;5087383;28;20028;-68
2022/06/26 00:45:08;;;;;;;35.45;29.63;;;18.10;99.90;;;;;;5087522;28;20925;-68
2022/06/26 00:47:33;;;;;;;40.85;32.40;;;18.00;99.90;;;;;;5068920;28;20425;-68
2022/06/26 00:50:00;;;;;;;36.25;30.40;;;18.00;99.90;;;;;;5083810;28;20048;-68
2022/06/26 00:52:27;;;;;;;41.70;31.35;;;18.00;99.90;;;;;;5086567;28;20485;-69
2022/06/26 00:54:54;;;;;;;36.38;30.65;;;18.00;99.90;;;;;;5063336;28;20046;-68
2022/06/26 00:57:21;;;;;;;41.37;33.67;;;18.00;99.90;;;;;;5087631;28;20457;-68
2022/06/26 00:59:47;;;;;;;36.95;30.85;;;18.00;99.90;;;;;;5082953;28;20799;-68
2022/06/26 01:02:13;;;;;;;45.63;35.72;;;17.90;99.90;;;;;;5086944;28;20059;-68
2022/06/26 01:04:39;;;;;;;36.53;32.17;;;17.90;99.90;;;;;;5085994;28;20458;-68
2022/06/26 01:07:05;;;;;;;35.83;30.00;;;17.90;99.90;;;;;;5086035;28;20764;-68
2022/06/26 01:09:31;;;;;;;39.42;31.40;;;17.90;99.90;;;;;;5086167;28;20417;-68
2022/06/26 01:11:57;;;;;;;38.92;31.83;;;17.80;99.90;;;;;;5086262;28;20044;-68
2022/06/26 01:14:23;;;;;;;35.53;30.55;;;17.80;99.90;;;;;;5085131;28;20366;-68
2022/06/26 01:16:49;;;;;;;34.72;30.23;;;17.80;99.90;;;;;;5085753;28;20040;-68
2022/06/26 01:19:17;;;;;;;39.95;32.92;;;17.80;99.90;;;;;;5084355;28;20036;-68
2022/06/26 01:21:43;;;;;;;34.63;28.95;;;17.70;99.90;;;;;;5087167;28;20122;-68
2022/06/26 01:24:09;;;;;;;24.02;19.77;;;17.70;99.90;;;;;;5084910;28;20082;-67
2022/06/26 01:26:36;;;;;;;19.75;17.77;;;17.60;99.90;;;;;;5084352;28;20172;-68
2022/06/26 01:29:03;;;;;;;19.17;17.27;;;17.60;99.90;;;;;;5082377;28;21762;-68
2022/06/26 01:31:29;;;;;;;26.42;19.98;;;17.60;99.90;;;;;;5085278;28;20089;-67
2022/06/26 01:33:54;;;;;;;24.85;21.63;;;17.60;99.90;;;;;;5085179;28;20048;-67
2022/06/26 01:36:20;;;;;;;19.80;17.75;;;17.60;99.90;;;;;;5086752;28;20043;-67
2022/06/26 01:38:46;;;;;;;18.92;16.92;;;17.50;99.90;;;;;;5083689;28;20044;-67
2022/06/26 01:41:12;;;;;;;51.70;40.33;;;17.50;99.90;;;;;;5086354;28;20036;-67
2022/06/26 01:43:39;;;;;;;37.25;32.15;;;17.50;99.90;;;;;;5085706;28;20503;-66
2022/06/26 01:46:06;;;;;;;43.90;34.42;;;17.40;99.90;;;;;;5086726;28;20044;-69
2022/06/26 01:48:34;;;;;;;47.78;38.53;;;17.40;99.90;;;;;;5084635;28;20036;-68
2022/06/26 01:51:01;;;;;;;42.92;36.65;;;17.50;99.90;;;;;;5081589;28;20123;-67
2022/06/26 01:53:27;;;;;;;59.25;41.00;;;17.50;99.90;;;;;;5084784;28;20040;-67
2022/06/26 01:55:54;;;;;;;56.42;39.65;;;17.60;99.90;;;;;;5085932;28;20032;-67
2022/06/26 01:58:20;;;;;;;43.72;36.20;;;17.60;99.90;;;;;;5085964;28;20043;-67
2022/06/26 02:00:47;;;;;;;54.83;35.65;;;17.70;99.90;;;;;;5085480;28;20729;-66
2022/06/26 02:03:15;;;;;;;48.88;38.20;;;17.70;99.90;;;;;;5085868;28;20039;-67
2022/06/26 02:05:41;;;;;;;56.83;37.85;;;17.70;99.90;;;;;;5081053;28;20047;-67
2022/06/26 02:08:07;;;;;;;40.50;34.58;;;17.70;99.90;;;;;;5085683;28;20505;-67
2022/06/26 02:16:20;;;;;;;45.00;36.13;;;17.80;99.90;;;;;;5082499;28;20773;-67
2022/06/26 02:18:48;;;;;;;44.25;33.65;;;17.90;99.90;;;;;;5067540;28;20055;-68
2022/06/26 02:21:18;;;;;;;40.28;33.28;;;17.90;99.90;;;;;;5084191;28;20123;-68
2022/06/26 02:23:46;;;;;;;40.75;32.28;;;17.90;99.90;;;;;;5085315;28;20070;-68
2022/06/26 02:26:12;;;;;;;43.97;36.22;;;18.00;99.90;;;;;;5085830;28;20044;-68
2022/06/26 02:28:39;;;;;;;47.63;35.42;;;18.00;99.90;;;;;;5086312;28;20167;-66
2022/06/26 02:31:06;;;;;;;54.40;37.77;;;18.00;99.90;;;;;;5072675;28;20048;-66
2022/06/26 02:33:32;;;;;;;48.08;37.63;;;18.00;99.90;;;;;;5078722;28;20036;-65
2022/06/26 02:35:59;;;;;;;52.13;40.05;;;18.10;99.90;;;;;;5084545;28;20038;-65
2022/06/26 02:38:25;;;;;;;54.17;39.15;;;18.00;99.90;;;;;;5067164;28;20044;-65
2022/06/26 02:40:51;;;;;;;54.63;38.55;;;18.00;99.90;;;;;;5081154;28;20036;-65
2022/06/26 02:43:18;;;;;;;45.63;40.08;;;18.00;99.90;;;;;;5086863;28;20119;-67
2022/06/26 02:45:45;;;;;;;55.85;41.83;;;18.00;99.90;;;;;;5081495;28;20043;-67
2022/06/26 02:48:11;;;;;;;50.45;38.30;;;18.00;99.90;;;;;;5082641;28;20377;-65
2022/06/26 02:50:37;;;;;;;49.83;40.78;;;18.00;99.90;;;;;;5083978;28;20084;-65
2022/06/26 02:53:04;;;;;;;50.97;39.47;;;18.00;99.90;;;;;;5085481;28;20489;-66
2022/06/26 02:55:29;;;;;;;43.47;38.80;;;18.00;99.90;;;;;;5085423;28;20051;-66
2022/06/26 02:57:55;;;;;;;48.17;36.58;;;17.90;99.90;;;;;;5090109;28;20294;-66
2022/06/26 03:00:21;;;;;;;40.75;33.67;;;17.90;99.90;;;;;;5090007;28;20405;-66
2022/06/26 03:02:47;;;;;;;34.40;30.00;;;17.90;99.90;;;;;;5089065;28;20066;-66
2022/06/26 03:05:12;;;;;;;41.55;32.78;;;17.90;99.90;;;;;;5087791;28;20055;-67
2022/06/26 03:07:38;;;;;;;35.40;31.08;;;17.90;99.90;;;;;;5087876;28;20688;-66
2022/06/26 03:10:04;;;;;;;31.63;25.02;;;17.90;99.90;;;;;;5085024;28;20143;-66
2022/06/26 03:12:30;;;;;;;31.45;28.08;;;17.90;99.90;;;;;;5082320;28;20071;-66
2022/06/26 03:14:56;;;;;;;37.38;29.25;;;17.90;99.90;;;;;;5081662;28;20123;-66
2022/06/26 03:17:21;;;;;;;27.77;24.58;;;17.90;99.90;;;;;;5082315;28;20560;-66
2022/06/26 03:19:47;;;;;;;28.20;24.10;;;17.90;99.90;;;;;;5083094;28;20040;-66
2022/06/26 03:22:13;;;;;;;32.80;25.55;;;18.00;99.90;;;;;;5083769;28;20044;-67
2022/06/26 03:24:38;;;;;;;29.42;23.70;;;18.00;99.90;;;;;;5088343;28;20067;-66
2022/06/26 03:27:04;;;;;;;28.88;22.98;;;18.00;99.90;;;;;;5088238;28;20035;-66
2022/06/26 03:29:30;;;;;;;35.70;27.63;;;18.00;99.90;;;;;;5087795;28;20083;-66
2022/06/26 03:31:56;;;;;;;31.35;24.63;;;18.00;99.90;;;;;;5085411;28;20111;-66
2022/06/26 03:34:21;;;;;;;26.92;23.40;;;17.90;99.90;;;;;;5085930;28;20489;-67
2022/06/26 03:36:47;;;;;;;31.67;25.55;;;17.90;99.90;;;;;;5069658;28;20134;-66
2022/06/26 03:39:13;;;;;;;29.77;23.73;;;17.90;99.90;;;;;;5086322;28;20040;-66
2022/06/26 03:41:39;;;;;;;37.20;27.73;;;17.90;99.90;;;;;;5086761;28;21647;-66
2022/06/26 03:44:06;;;;;;;32.88;23.90;;;17.90;99.90;;;;;;5088723;28;20048;-66
2022/06/26 03:46:32;;;;;;;28.10;24.98;;;17.90;99.90;;;;;;5087978;28;20677;-66
2022/06/26 03:48:58;;;;;;;25.35;20.88;;;17.80;99.90;;;;;;5082539;28;20161;-66
2022/06/26 03:51:24;;;;;;;24.73;20.40;;;17.80;99.90;;;;;;5085695;28;20461;-66
2022/06/26 03:53:50;;;;;;;26.65;20.52;;;17.80;99.90;;;;;;5087445;28;20127;-66
2022/06/26 03:56:16;;;;;;;23.95;21.25;;;17.80;99.90;;;;;;5089799;28;20093;-66
2022/06/26 03:58:41;;;;;;;27.42;20.52;;;17.80;99.90;;;;;;5087484;28;20044;-66
2022/06/26 04:01:07;;;;;;;26.52;19.42;;;17.80;99.90;;;;;;5087142;28;20051;-66
2022/06/26 04:03:32;;;;;;;25.20;20.80;;;17.70;99.90;;;;;;5087451;28;20067;-66
2022/06/26 04:05:59;;;;;;;20.98;17.52;;;17.70;99.90;;;;;;5087249;28;20060;-66
2022/06/26 04:08:24;;;;;;;20.80;16.45;;;17.70;99.90;;;;;;5086213;28;20813;-66
2022/06/26 04:10:50;;;;;;;24.85;16.00;;;17.80;99.90;;;;;;5085732;28;20555;-66
2022/06/26 04:13:16;;;;;;;22.15;15.60;;;17.80;99.90;;;;;;5082212;28;20047;-66
2022/06/26 04:15:41;;;;;;;16.90;12.27;;;17.80;99.90;;;;;;5087233;28;20164;-65
2022/06/26 04:18:08;;;;;;;17.00;13.85;;;17.70;99.90;;;;;;5079031;28;20052;-66
2022/06/26 04:20:37;;;;;;;14.23;12.73;;;17.70;99.90;;;;;;5078498;28;20032;-65
2022/06/26 04:23:04;;;;;;;15.80;12.75;;;17.70;99.90;;;;;;5079512;28;20040;-66
2022/06/26 04:25:32;;;;;;;18.50;14.45;;;17.70;99.90;;;;;;5086422;28;20048;-66
2022/06/26 04:27:57;;;;;;;26.33;16.83;;;17.70;99.90;;;;;;5088632;28;20039;-66
2022/06/26 04:30:24;;;;;;;23.23;20.65;;;17.70;99.90;;;;;;5084539;28;20048;-66
2022/06/26 04:32:50;;;;;;;29.02;21.80;;;17.60;99.90;;;;;;5061710;28;20382;-64
2022/06/26 04:35:15;;;;;;;19.00;16.35;;;17.70;99.90;;;;;;5087536;28;20051;-65
2022/06/26 04:37:41;;;;;;;19.27;15.20;;;17.60;99.90;;;;;;5086624;28;20058;-65
2022/06/26 04:40:10;;;;;;;26.92;18.23;;;17.60;99.90;;;;;;5086714;28;20031;-64
2022/06/26 04:42:36;;;;;;;17.00;14.38;;;17.60;99.90;;;;;;5085700;28;20126;-64
2022/06/26 04:45:02;;;;;;;17.33;15.02;;;17.60;99.90;;;;;;5083404;28;20163;-64
2022/06/26 04:47:27;;;;;;;16.77;14.82;;;17.60;99.90;;;;;;5081985;28;20093;-65
2022/06/26 04:49:53;;;;;;;17.75;15.38;;;17.60;99.90;;;;;;5087318;28;20044;-65
2022/06/26 04:52:19;;;;;;;20.10;13.73;;;17.60;99.90;;;;;;5072396;28;20151;-65
2022/06/26 04:54:45;;;;;;;17.02;13.57;;;17.60;99.90;;;;;;5085686;28;20040;-65
2022/06/26 04:57:12;;;;;;;15.00;12.50;;;17.60;99.90;;;;;;5085943;28;20047;-67
2022/06/26 04:59:38;;;;;;;23.33;11.27;;;17.60;99.90;;;;;;5084246;28;20089;-67
2022/06/26 05:02:05;;;;;;;16.55;13.23;;;17.70;99.90;;;;;;5086829;28;20586;-66
2022/06/26 05:04:31;;;;;;;20.83;12.93;;;17.70;99.90;;;;;;5078716;28;20040;-66
2022/06/26 05:06:56;;;;;;;16.48;13.63;;;17.70;99.90;;;;;;5085801;28;20054;-66
2022/06/26 05:09:23;;;;;;;15.32;11.50;;;17.70;99.90;;;;;;5081435;28;20124;-64
2022/06/26 05:11:50;;;;;;;13.67;11.50;;;17.70;99.90;;;;;;5085065;28;20036;-65
2022/06/26 05:14:16;;;;;;;15.00;13.35;;;17.70;99.90;;;;;;5081589;28;20516;-66
2022/06/26 05:16:42;;;;;;;14.20;12.65;;;17.70;99.90;;;;;;5087909;28;20079;-65
2022/06/26 05:19:08;;;;;;;19.08;12.30;;;17.70;99.90;;;;;;5084088;28;20068;-65
2022/06/26 05:21:34;;;;;;;13.13;11.30;;;17.80;99.90;;;;;;5085563;28;20036;-66
2022/06/26 05:23:59;;;;;;;15.88;12.88;;;17.80;99.90;;;;;;5083253;28;20845;-66
2022/06/26 05:26:25;;;;;;;17.55;13.35;;;17.80;99.90;;;;;;5079402;28;20127;-66
2022/06/26 05:28:51;;;;;;;14.68;12.57;;;17.90;99.90;;;;;;5078832;28;20400;-65
2022/06/26 05:31:18;;;;;;;16.52;13.57;;;17.90;99.90;;;;;;5079172;28;20047;-66
2022/06/26 05:33:44;;;;;;;17.67;12.82;;;17.90;99.90;;;;;;5079969;28;20400;-65
2022/06/26 05:36:10;;;;;;;16.73;13.23;;;18.00;99.90;;;;;;5081467;28;20027;-66
2022/06/26 05:38:36;;;;;;;15.57;12.77;;;18.00;99.90;;;;;;5080764;28;20097;-66
2022/06/26 05:41:02;;;;;;;20.00;17.85;;;18.00;99.90;;;;;;5079351;28;20048;-66
2022/06/26 05:43:27;;;;;;;21.75;17.75;;;18.10;99.90;;;;;;5079632;28;20039;-65
2022/06/26 05:45:53;;;;;;;19.25;16.13;;;18.10;99.90;;;;;;5060799;28;20040;-67
2022/06/26 05:48:20;;;;;;;21.15;15.02;;;18.10;99.90;;;;;;5077693;28;20062;-65
2022/06/26 05:50:46;;;;;;;18.70;14.75;;;18.20;99.90;;;;;;5081704;28;20044;-65
2022/06/26 05:53:12;;;;;;;15.05;13.00;;;18.20;99.90;;;;;;5079149;28;20044;-67
2022/06/26 05:55:38;;;;;;;17.02;14.63;;;18.10;99.90;;;;;;5061314;28;20122;-66
2022/06/26 05:58:05;;;;;;;19.83;13.30;;;18.20;99.90;;;;;;5078982;28;20048;-66
2022/06/26 06:00:31;;;;;;;19.85;12.95;;;18.20;99.90;;;;;;5079753;28;20047;-66
2022/06/26 06:02:57;;;;;;;17.63;13.82;;;18.30;99.90;;;;;;5080844;28;20044;-66
2022/06/26 06:05:23;;;;;;;18.73;15.05;;;18.40;99.90;;;;;;5059760;28;20110;-67
2022/06/26 06:07:49;;;;;;;17.50;14.25;;;18.50;99.90;;;;;;5081450;28;20517;-66
2022/06/26 06:10:15;;;;;;;22.83;16.25;;;18.60;99.90;;;;;;5078594;28;20544;-66
2022/06/26 06:12:41;;;;;;;25.50;17.13;;;18.60;99.90;;;;;;5060141;28;20055;-67
2022/06/26 06:15:07;;;;;;;24.95;17.45;;;18.60;99.90;;;;;;5077733;28;20063;-67
2022/06/26 06:17:36;;;;;;;22.20;17.80;;;18.80;99.90;;;;;;5082174;28;20039;-65
2022/06/26 06:20:13;;;;;;;20.60;16.88;;;18.80;99.90;;;;;;5080657;28;20044;-67
2022/06/26 06:22:41;;;;;;;25.90;19.95;;;19.00;99.90;;;;;;5079422;28;20044;-66
2022/06/26 06:25:07;;;;;;;24.92;17.70;;;19.10;99.90;;;;;;5077404;28;20052;-67
2022/06/26 06:27:33;;;;;;;21.38;16.73;;;19.10;99.90;;;;;;5077850;28;20044;-66
2022/06/26 06:29:59;;;;;;;24.40;20.45;;;19.20;99.90;;;;;;5078024;28;20051;-66
2022/06/26 06:32:24;;;;;;;25.17;19.00;;;19.20;99.90;;;;;;5078994;28;20489;-68
2022/06/26 06:34:50;;;;;;;26.55;19.15;;;19.30;99.90;;;;;;5076942;28;20122;-66
2022/06/26 06:37:16;;;;;;;29.20;19.10;;;19.30;99.90;;;;;;5078865;28;20171;-67
2022/06/26 06:39:46;;;;;;;25.38;20.05;;;19.30;99.90;;;;;;5057476;28;20044;-67
2022/06/26 06:42:12;;;;;;;26.35;18.58;;;19.30;99.90;;;;;;5034932;28;20040;-67
2022/06/26 06:44:38;;;;;;;24.33;18.05;;;19.40;99.90;;;;;;5079280;28;20068;-67
2022/06/26 06:47:04;;;;;;;24.83;18.42;;;19.40;99.90;;;;;;5087125;28;20465;-67
2022/06/26 06:49:30;;;;;;;22.48;18.45;;;19.40;99.90;;;;;;5080414;28;20055;-67
2022/06/26 06:51:56;;;;;;;27.05;18.05;;;19.40;99.90;;;;;;5080892;28;20036;-67
2022/06/26 06:54:21;;;;;;;23.20;16.10;;;19.40;99.90;;;;;;5084171;28;20484;-67
2022/06/26 06:56:47;;;;;;;20.20;18.10;;;19.40;99.90;;;;;;5080099;28;20142;-67
2022/06/26 06:59:13;;;;;;;21.77;18.75;;;19.50;99.90;;;;;;5080376;28;20040;-67
2022/06/26 07:01:39;;;;;;;27.65;18.92;;;19.50;99.90;;;;;;5082080;28;20035;-67
2022/06/26 07:04:04;;;;;;;19.70;17.58;;;19.50;99.90;;;;;;5062169;28;20377;-67
2022/06/26 07:06:30;;;;;;;21.73;17.85;;;19.50;99.90;;;;;;5062920;28;20063;-67
2022/06/26 07:08:56;;;;;;;21.25;18.98;;;19.60;99.90;;;;;;5084798;28;20083;-67
2022/06/26 07:11:21;;;;;;;25.50;18.90;;;19.70;99.90;;;;;;5084536;28;20132;-66
2022/06/26 07:13:47;;;;;;;23.55;18.67;;;19.60;99.90;;;;;;5079310;28;20032;-67
2022/06/26 07:16:13;;;;;;;31.77;21.52;;;19.60;99.90;;;;;;5078148;28;20046;-67
2022/06/26 07:18:39;;;;;;;24.00;20.05;;;19.60;99.90;;;;;;5084240;28;20040;-68
2022/06/26 07:21:05;;;;;;;23.65;20.15;;;19.70;99.90;;;;;;5085270;28;20048;-66
2022/06/26 07:23:31;;;;;;;31.05;26.40;;;19.60;99.90;;;;;;5089546;28;20052;-67
2022/06/26 07:25:57;;;;;;;35.75;25.38;;;19.60;99.90;;;;;;5063872;28;20127;-68
2022/06/26 07:28:23;;;;;;;24.15;21.55;;;19.60;99.90;;;;;;5082154;28;20386;-68
2022/06/26 07:30:48;;;;;;;29.45;22.35;;;19.60;99.90;;;;;;5085045;28;20040;-67
2022/06/26 07:36:06;;;;;;;31.05;22.20;;;19.60;99.90;;;;;;5050840;28;20067;-67
2022/06/26 07:38:32;;;;;;;27.80;22.30;;;19.60;99.90;;;;;;5084670;28;20066;-67
2022/06/26 07:40:58;;;;;;;32.00;23.42;;;19.60;99.90;;;;;;5083947;28;20107;-67
2022/06/26 07:43:24;;;;;;;26.63;21.23;;;20.00;99.90;;;;;;5081881;28;20493;-68
2022/06/26 07:45:50;;;;;;;27.05;21.42;;;20.50;99.90;;;;;;5088503;28;20044;-68
2022/06/26 07:48:16;;;;;;;40.30;25.20;;;20.90;99.90;;;;;;5080683;28;20874;-67
2022/06/26 07:50:42;;;;;;;32.30;24.50;;;21.10;99.90;;;;;;5081765;28;20054;-68
2022/06/26 07:53:08;;;;;;;32.28;24.75;;;21.00;99.90;;;;;;5077145;28;20040;-69
2022/06/26 07:55:33;;;;;;;36.13;28.17;;;21.00;99.90;;;;;;5084452;28;20500;-69
2022/06/26 07:57:59;;;;;;;31.90;26.85;;;20.80;99.90;;;;;;5084112;28;20054;-69
2022/06/26 08:00:25;;;;;;;35.25;28.77;;;20.90;99.90;;;;;;5083544;28;20044;-69
2022/06/26 08:02:51;;;;;;;38.00;26.75;;;20.90;99.90;;;;;;5086492;28;20028;-69
2022/06/26 08:05:17;;;;;;;32.10;26.73;;;21.10;99.90;;;;;;5078287;28;20504;-69
2022/06/26 08:07:43;;;;;;;27.70;23.77;;;21.50;99.90;;;;;;5088144;28;20036;-69
2022/06/26 08:10:09;;;;;;;25.88;23.20;;;21.90;99.90;;;;;;5066604;28;20059;-69
2022/06/26 08:12:35;;;;;;;32.88;25.55;;;22.20;99.90;;;;;;5064424;28;20048;-69
2022/06/26 08:15:01;;;;;;;29.73;22.75;;;22.10;99.90;;;;;;5078455;28;20043;-67
2022/06/26 08:17:27;;;;;;;27.95;24.60;;;22.30;99.90;;;;;;5085866;28;20051;-68
2022/06/26 08:19:53;;;;;;;26.88;21.73;;;22.70;99.90;;;;;;5085812;28;20040;-67
2022/06/26 08:22:19;;;;;;;31.48;22.25;;;22.90;99.90;;;;;;5081261;28;20043;-68
2022/06/26 08:24:44;;;;;;;24.90;21.17;;;22.90;99.90;;;;;;5061747;28;20858;-69
2022/06/26 08:27:11;;;;;;;28.40;23.50;;;23.10;99.90;;;;;;5079347;28;20441;-68
2022/06/26 08:29:38;;;;;;;27.40;22.75;;;22.90;99.90;;;;;;5063459;28;20055;-69
2022/06/26 08:32:04;;;;;;;31.13;22.20;;;22.80;99.90;;;;;;5082004;28;20036;-69
2022/06/26 08:34:30;;;;;;;24.33;21.80;;;22.60;99.90;;;;;;5085539;28;20167;-68
2022/06/26 08:36:56;;;;;;;23.77;21.17;;;22.40;99.90;;;;;;5068680;28;20040;-68
2022/06/26 08:39:23;;;;;;;23.00;20.63;;;22.40;99.90;;;;;;5083781;28;20123;-68
2022/06/26 08:41:52;;;;;;;22.58;18.63;;;22.70;99.90;;;;;;5084898;28;20032;-68
2022/06/26 08:44:17;;;;;;;19.38;17.42;;;22.70;99.90;;;;;;5081726;28;20044;-68
2022/06/26 08:46:44;;;;;;;26.42;21.10;;;22.80;99.90;;;;;;5083729;28;20088;-67
2022/06/26 08:49:16;;;;;;;19.55;17.63;;;22.80;99.90;;;;;;5088384;28;20892;-68
2022/06/26 08:51:44;;;;;;;20.35;18.35;;;22.80;99.90;;;;;;5087736;28;20076;-68
2022/06/26 08:54:12;;;;;;;21.55;17.63;;;22.80;99.90;;;;;;5081248;28;20028;-67
2022/06/26 08:56:41;;;;;;;19.95;17.92;;;23.00;99.90;;;;;;5052351;28;20052;-67
2022/06/26 08:59:08;;;;;;;20.20;17.85;;;23.10;99.90;;;;;;5077302;28;20039;-66
2022/06/26 09:01:35;;;;;;;14.70;13.32;;;23.10;99.90;;;;;;5082765;28;20119;-67
2022/06/26 09:04:01;;;;;;;14.95;11.73;;;23.30;99.90;;;;;;5086311;28;20051;-68
2022/06/26 09:06:26;;;;;;;16.10;13.25;;;23.10;99.90;;;;;;5082312;28;20070;-68
2022/06/26 09:08:52;;;;;;;12.73;10.20;;;22.90;99.90;;;;;;5081504;28;20417;-67
2022/06/26 09:11:19;;;;;;;9.23;8.43;;;22.80;99.90;;;;;;5082227;28;20843;-67
2022/06/26 09:13:46;;;;;;;9.80;8.80;;;22.90;99.90;;;;;;5079741;28;20089;-67
2022/06/26 09:16:14;;;;;;;14.40;13.00;;;23.00;99.90;;;;;;5085535;28;20040;-68
2022/06/26 09:18:41;;;;;;;14.52;11.63;;;23.20;99.90;;;;;;5081764;28;20072;-68
2022/06/26 09:21:09;;;;;;;9.98;8.98;;;23.20;99.90;;;;;;5085802;28;20135;-68
2022/06/26 09:23:36;;;;;;;9.00;7.97;;;23.10;99.90;;;;;;5081725;28;20095;-67
2022/06/26 09:26:03;;;;;;;12.52;9.98;;;23.20;99.90;;;;;;5083264;28;20083;-68
2022/06/26 09:28:29;;;;;;;9.20;8.30;;;23.40;99.90;;;;;;5087567;28;20071;-67
2022/06/26 09:31:04;;;;;;;7.88;6.97;;;23.60;99.90;;;;;;5077695;28;20044;-68
2022/06/26 09:33:33;;;;;;;10.63;9.50;;;23.80;99.90;;;;;;5083853;28;20048;-68
2022/06/26 09:36:01;;;;;;;12.85;10.70;;;24.00;99.90;;;;;;5078300;28;20048;-68
2022/06/26 09:38:30;;;;;;;14.35;9.20;;;24.00;99.90;;;;;;5067218;28;20137;-66
2022/06/26 09:40:56;;;;;;;11.93;9.27;;;24.20;99.90;;;;;;5080229;28;20443;-67
2022/06/26 09:43:40;;;;;;;10.95;9.80;;;24.30;99.90;;;;;;5061811;28;20120;-68
2022/06/26 09:46:08;;;;;;;9.43;8.48;;;24.20;99.90;;;;;;5060627;28;20053;-67
2022/06/26 09:48:35;;;;;;;8.27;7.60;;;24.40;99.90;;;;;;5079390;28;20515;-67
2022/06/26 09:51:02;;;;;;;8.40;7.70;;;24.60;99.90;;;;;;5080441;28;20058;-68
2022/06/26 09:53:28;;;;;;;9.20;8.43;;;24.60;99.90;;;;;;5080410;28;20040;-66
2022/06/26 09:55:57;;;;;;;9.73;8.83;;;24.70;99.90;;;;;;5087245;28;20414;-66
2022/06/26 09:58:25;;;;;;;12.00;9.57;;;24.70;99.90;;;;;;5084911;28;20443;-67
2022/06/26 10:06:27;;;;;;;11.32;9.70;;;25.10;99.90;;;;;;5084867;28;20139;-68
2022/06/26 10:08:55;;;;;;;8.38;7.05;;;25.10;99.90;;;;;;5086174;28;20102;-69
2022/06/26 10:11:24;;;;;;;8.68;7.22;;;25.00;99.90;;;;;;5080230;28;20531;-68
2022/06/26 10:13:52;;;;;;;11.10;7.43;;;25.00;99.90;;;;;;5080402;28;20131;-68
2022/06/26 10:16:34;;;;;;;7.05;6.45;;;25.10;99.90;;;;;;5076794;28;20571;-70
2022/06/26 10:19:17;;;;;;;22.45;8.15;;;25.10;99.90;;;;;;5079449;28;20047;-68
2022/06/26 10:21:43;;;;;;;8.25;7.55;;;25.20;99.90;;;;;;5081115;28;20051;-67
2022/06/26 10:24:09;;;;;;;12.05;7.80;;;25.20;99.90;;;;;;5084699;28;20040;-68
2022/06/26 10:26:35;;;;;;;13.80;9.93;;;25.00;99.90;;;;;;5083287;28;20377;-68
2022/06/26 10:29:08;;;;;;;14.10;7.28;;;25.00;99.90;;;;;;5083964;28;20508;-68
2022/06/26 10:31:47;;;;;;;8.02;6.90;;;24.90;99.90;;;;;;5066663;28;20044;-68
2022/06/26 10:34:13;;;;;;;7.28;6.57;;;24.80;94.20;;;;;;5081735;28;20599;-68
2022/06/26 10:36:39;;;;;;;9.93;6.47;;;24.80;99.90;;;;;;5084786;28;20040;-68
2022/06/26 10:39:06;;;;;;;8.80;5.60;;;24.60;99.90;;;;;;5081871;28;20177;-67
2022/06/26 10:44:45;;;;;;;9.52;5.18;;;24.40;98.20;;;;;;5082259;28;20044;-67
2022/06/26 10:47:15;;;;;;;9.32;5.70;;;24.40;95.50;;;;;;5083792;28;20662;-68
2022/06/26 10:49:50;;;;;;;8.80;7.95;;;24.40;97.40;;;;;;5067262;28;20146;-68
2022/06/26 10:52:31;;;;;;;9.27;6.63;;;24.50;93.50;;;;;;5067786;28;20056;-68
2022/06/26 10:54:57;;;;;;;7.53;5.72;;;24.50;97.20;;;;;;5077190;28;20123;-68
2022/06/26 10:57:41;;;;;;;8.57;6.67;;;24.30;99.00;;;;;;5087684;28;20039;-68
2022/06/26 11:00:11;;;;;;;14.75;6.75;;;24.40;97.90;;;;;;5085222;28;20434;-68
2022/06/26 11:02:39;;;;;;;11.40;6.43;;;24.50;99.90;;;;;;5090241;28;20117;-68
2022/06/26 11:05:07;;;;;;;7.40;6.63;;;24.30;99.90;;;;;;5089087;28;20048;-68
2022/06/26 11:07:50;;;;;;;6.63;6.03;;;24.40;99.90;;;;;;5087589;28;20036;-68
2022/06/26 11:10:19;;;;;;;6.85;6.07;;;24.50;99.60;;;;;;5090024;28;20127;-68
2022/06/26 11:12:47;;;;;;;8.00;6.20;;;24.30;99.90;;;;;;5089118;28;20058;-68
2022/06/26 11:15:28;;;;;;;7.45;6.82;;;24.30;99.90;;;;;;5088348;28;20418;-68
2022/06/26 11:17:56;;;;;;;7.93;6.20;;;24.40;99.90;;;;;;5090371;28;20044;-68
2022/06/26 11:23:22;;;;;;;6.22;5.60;;;24.30;99.90;;;;;;5090462;28;20048;-67
2022/06/26 11:26:09;;;;;;;7.20;6.13;;;24.40;97.90;;;;;;5088292;28;20093;-67
2022/06/26 11:28:40;;;;;;;6.20;5.40;;;24.40;98.40;;;;;;5038364;28;20072;-67
2022/06/26 11:31:08;;;;;;;8.07;6.35;;;24.30;99.90;;;;;;5084137;28;20043;-68
2022/06/26 11:33:36;;;;;;;10.70;6.15;;;24.40;99.90;;;;;;5082980;28;20044;-67
2022/06/26 11:36:09;;;;;;;6.47;5.68;;;24.50;99.30;;;;;;5086547;28;20570;-67
2022/06/26 11:38:36;;;;;;;9.05;6.35;;;24.60;98.00;;;;;;5082207;28;20044;-67
2022/06/26 11:41:05;;;;;;;7.15;6.05;;;24.60;96.60;;;;;;5084800;28;20505;-66
2022/06/26 11:43:31;;;;;;;20.38;7.55;;;24.70;94.30;;;;;;5070086;28;20178;-66
2022/06/26 11:45:58;;;;;;;6.80;6.10;;;24.80;94.90;;;;;;5089426;28;20051;-66
2022/06/26 11:48:24;;;;;;;16.02;6.03;;;24.90;95.90;;;;;;5090044;28;20048;-66
2022/06/26 11:50:51;;;;;;;6.60;5.60;;;25.20;97.90;;;;;;5088948;28;20072;-66
2022/06/26 11:53:26;;;;;;;7.55;5.68;;;25.20;87.90;;;;;;5086613;28;20048;-67
2022/06/26 11:55:54;;;;;;;10.43;6.47;;;25.20;84.50;;;;;;5065770;28;20052;-68
2022/06/26 11:58:26;;;;;;;8.48;5.50;;;25.20;79.80;;;;;;5084675;28;20405;-68
2022/06/26 12:01:08;;;;;;;8.77;5.68;;;25.20;77.60;;;;;;5084547;28;20036;-69
2022/06/26 12:03:43;;;;;;;8.43;5.47;;;25.30;82.30;;;;;;5083245;28;20040;-68
2022/06/26 12:06:10;;;;;;;6.55;5.88;;;25.20;79.40;;;;;;5087912;28;20048;-68
2022/06/26 12:08:35;;;;;;;26.05;6.35;;;25.20;84.10;;;;;;5080882;28;20048;-68
2022/06/26 12:11:01;;;;;;;9.63;6.22;;;25.30;86.00;;;;;;5083467;28;20063;-70
2022/06/26 12:13:31;;;;;;;13.65;6.53;;;25.50;80.70;;;;;;5077695;28;20058;-68
2022/06/26 12:16:08;;;;;;;6.10;4.85;;;25.40;82.80;;;;;;5089404;28;20123;-67
2022/06/26 12:18:36;;;;;;;10.32;5.70;;;25.70;78.20;;;;;;5086650;28;20912;-68
2022/06/26 12:21:02;;;;;;;8.05;6.57;;;25.60;80.00;;;;;;5088057;28;20135;-67
2022/06/26 12:23:37;;;;;;;12.03;7.30;;;25.60;75.90;;;;;;5085827;28;20455;-67
2022/06/26 12:26:07;;;;;;;7.97;6.10;;;25.50;73.50;;;;;;5086368;28;20058;-67
2022/06/26 12:28:33;;;;;;;9.40;6.32;;;25.50;74.60;;;;;;5079943;28;20056;-67
2022/06/26 12:31:01;;;;;;;9.32;6.13;;;25.70;76.40;;;;;;5078268;28;20106;-67
2022/06/26 12:33:27;;;;;;;6.43;5.82;;;25.70;76.20;;;;;;5088304;28;20513;-67
2022/06/26 12:35:52;;;;;;;9.55;6.20;;;25.70;76.10;;;;;;5069896;28;20127;-67
2022/06/26 12:38:26;;;;;;;11.05;6.72;;;25.70;74.70;;;;;;5088270;28;20054;-66
2022/06/26 12:40:52;;;;;;;10.65;6.20;;;25.70;77.60;;;;;;5088797;28;20036;-67
2022/06/26 12:43:18;;;;;;;9.00;8.13;;;25.70;78.50;;;;;;5065394;28;20196;-67
2022/06/26 12:45:44;;;;;;;9.45;8.18;;;25.60;79.10;;;;;;5085062;28;20469;-67
2022/06/26 12:48:10;;;;;;;7.50;6.78;;;25.60;79.60;;;;;;5077154;28;20098;-67
2022/06/26 12:50:36;;;;;;;7.95;6.28;;;25.40;79.00;;;;;;5086871;28;20058;-68